PORT of GUERNSEY

Država: Guernsey Država: Guernsey [GG]
Latitude/Longitude: 49.456° / -2.526° Prikaži na mapi
Vrijeme:  [UTC +1]
UN/LOCODE: GGGCI
Brod je Trenutno u Luci: 15
Očekivani dolasci: 15

Posljednji dolasci i odlasci


Ime broda
Dolazak (UTC)
Dolazak (LT)
Isplovljenje (UTC)
Isplovljenje (LT)
Vessel Type: Jahta, jedrilica  JOTTY 2014-08-23 03:43:00 2014-08-23 04:43:00 2014-08-23 03:59:00 2014-08-23 04:59:00
Vessel Type: Jahta, jedrilica  POLARIS 2014-08-22 13:22:00 2014-08-22 14:22:00 2014-08-23 03:27:00 2014-08-23 04:27:00
Vessel Type: Tegljač,pilot itd.  PILOT GOLDEN SPUR 2014-08-23 03:26:00 2014-08-23 04:26:00
Vessel Type: Tegljač,pilot itd.  PILOT GOLDEN SPUR 2014-08-23 01:49:00 2014-08-23 02:49:00 2014-08-23 03:22:00 2014-08-23 04:22:00
Vessel Type: Putnički brodovi  COMMODORE CLIPPER 2014-08-23 01:50:00 2014-08-23 02:50:00 2014-08-23 03:22:00 2014-08-23 04:22:00
Vessel Type: Tegljač,pilot itd.  PILOT GOLDEN SPUR 2014-08-22 19:51:00 2014-08-22 20:51:00 2014-08-23 01:15:00 2014-08-23 02:15:00
Vessel Type: Jahta, jedrilica  LA CONTENTA 2014-08-22 22:53:00 2014-08-22 23:53:00
Vessel Type: Putnički brodovi  TRIDENT V 2014-08-22 21:59:00 2014-08-22 22:59:00
Vessel Type: Jahta, jedrilica  SABRINA 2014-08-22 21:13:00 2014-08-22 22:13:00
Vessel Type: Katamaran i sl.  CONDOR VITESSE 2014-08-22 20:05:00 2014-08-22 21:05:00 2014-08-22 20:49:00 2014-08-22 21:49:00

Očekivani dolasci


Ime broda
Scheduled Arrival (UTC)
Dolazak planiran (lokalno)
Približno vrijeme dolaska (UTC)
Približno vrijeme dolaska (lokalno)
Vessel Type: Teretni brod  MN TOUCAN 2014-08-22 16:45:00 2014-08-22 17:45:00 2014-08-23 13:05:00 2014-08-23 14:05:00
Vessel Type: Tankeri  JAYNEE W 2014-08-23 18:20:00 2014-08-23 19:20:00 2014-08-23 07:19:00 2014-08-23 08:19:00
Vessel Type: Teretni brod  RONEZ 2014-08-24 09:00:00 2014-08-24 10:00:00 2014-08-24 10:38:00 2014-08-24 11:38:00
Vessel Type: Teretni brod  ANNABELLA S 2014-08-24 15:00:00 2014-08-24 16:00:00 2014-08-25 14:39:00 2014-08-25 15:39:00
MIKHAIL LOMONOSOV 2014-08-25 01:00:00 2014-08-25 02:00:00 2014-08-26 09:15:00 2014-08-26 10:15:00
Vessel Type: Teretni brod  ISIDOR 2014-08-25 05:00:00 2014-08-25 06:00:00 2014-08-26 19:06:00 2014-08-26 20:06:00
Vessel Type: Teretni brod  CONMAR AVENUE 2014-08-25 15:00:00 2014-08-25 16:00:00 2014-08-27 16:53:00 2014-08-27 17:53:00
Vessel Type: Teretni brod  PITZTAL 2014-08-25 15:00:00 2014-08-25 16:00:00 2014-08-26 06:38:00 2014-08-26 07:38:00
Vessel Type: Teretni brod  CELINE 2014-08-25 21:00:00 2014-08-25 22:00:00 2014-08-24 21:17:00 2014-08-24 22:17:00
Vessel Type: Tankeri  MINERVA EMILY 2014-08-25 23:00:00 2014-08-26 00:00:00 2014-08-24 23:18:00 2014-08-25 00:18:00

Wind Forecast


    
Vrijeme (UTC)
Brzina
Direction
Temperature
2014-08-23 03:00:00 13 knots 342° 15°C
2014-08-23 06:00:00 12 knots 330° 15°C
2014-08-23 09:00:00 13 knots 313° 15°C
2014-08-23 12:00:00 13 knots 303° 15°C
2014-08-23 15:00:00 15 knots 305° 16°C
2014-08-23 18:00:00 16 knots 307° 16°C
2014-08-23 21:00:00 15 knots 319° 16°C
2014-08-24 00:00:00 12 knots 342° 16°C
2014-08-24 03:00:00 9 knots 348° 15°C
2014-08-24 06:00:00 5 knots 345° 15°C
2014-08-24 09:00:00 2 knots 290° 15°C
2014-08-24 12:00:00 4 knots 247° 16°C
2014-08-24 15:00:00 3 knots 267° 16°C
2014-08-24 18:00:00 5 knots 158° 16°C
2014-08-24 21:00:00 9 knots 171° 17°C
2014-08-25 00:00:00 13 knots 179° 17°C
2014-08-25 03:00:00 13 knots 201° 17°C